Map

Track Data

SID SEASON NUMBER BASIN SUBBASIN NAME ISO_TIME NATURE LAT LON WMO_WIND WMO_PRES WMO_AGENCY TRACK_TYPE DIST2LAND LANDFALL IFLAG USA_AGENCY USA_ATCF_ID USA_LAT USA_LON USA_RECORD USA_STATUS USA_WIND USA_PRES USA_SSHS USA_R34_NE USA_R34_SE USA_R34_SW USA_R34_NW USA_R50_NE USA_R50_SE USA_R50_SW USA_R50_NW USA_R64_NE USA_R64_SE USA_R64_SW USA_R64_NW USA_POCI USA_ROCI USA_RMW USA_EYE TOKYO_LAT TOKYO_LON TOKYO_GRADE TOKYO_WIND TOKYO_PRES TOKYO_R50_DIR TOKYO_R50_LONG TOKYO_R50_SHORT TOKYO_R30_DIR TOKYO_R30_LONG TOKYO_R30_SHORT TOKYO_LAND CMA_LAT CMA_LON CMA_CAT CMA_WIND CMA_PRES HKO_LAT HKO_LON HKO_CAT HKO_WIND HKO_PRES NEWDELHI_LAT NEWDELHI_LON NEWDELHI_GRADE NEWDELHI_WIND NEWDELHI_PRES NEWDELHI_CI NEWDELHI_DP NEWDELHI_POCI REUNION_LAT REUNION_LON REUNION_TYPE REUNION_WIND REUNION_PRES REUNION_TNUM REUNION_CI REUNION_RMW REUNION_R34_NE REUNION_R34_SE REUNION_R34_SW REUNION_R34_NW REUNION_R50_NE REUNION_R50_SE REUNION_R50_SW REUNION_R50_NW REUNION_R64_NE REUNION_R64_SE REUNION_R64_SW REUNION_R64_NW BOM_LAT BOM_LON BOM_TYPE BOM_WIND BOM_PRES BOM_TNUM BOM_CI BOM_RMW BOM_R34_NE BOM_R34_SE BOM_R34_SW BOM_R34_NW BOM_R50_NE BOM_R50_SE BOM_R50_SW BOM_R50_NW BOM_R64_NE BOM_R64_SE BOM_R64_SW BOM_R64_NW BOM_ROCI BOM_POCI BOM_EYE BOM_POS_METHOD BOM_PRES_METHOD NADI_LAT NADI_LON NADI_CAT NADI_WIND NADI_PRES WELLINGTON_LAT WELLINGTON_LON WELLINGTON_WIND WELLINGTON_PRES DS824_LAT DS824_LON DS824_STAGE DS824_WIND DS824_PRES TD9636_LAT TD9636_LON TD9636_STAGE TD9636_WIND TD9636_PRES TD9635_LAT TD9635_LON TD9635_WIND TD9635_PRES TD9635_ROCI NEUMANN_LAT NEUMANN_LON NEUMANN_CLASS NEUMANN_WIND NEUMANN_PRES MLC_LAT MLC_LON MLC_CLASS MLC_WIND MLC_PRES USA_GUST BOM_GUST BOM_GUST_PER REUNION_GUST REUNION_GUST_PER USA_SEAHGT USA_SEARAD_NE USA_SEARAD_SE USA_SEARAD_SW USA_SEARAD_NW STORM_SPEED STORM_DIR
1986094N06138 1986 38 WP MM NOT_NAMED 1986-04-03 12:00:00 TS 6.00000 137.800 main 789 786 __O___________ -1 6.00000 137.800 0 19 1006 9 290
1986094N06138 1986 38 WP MM NOT_NAMED 1986-04-03 15:00:00 TS 6.14507 137.398 main 787 787 __P___________ -1 6.14507 137.398 0 19 1006 9 291
1986094N06138 1986 38 WP MM NOT_NAMED 1986-04-03 18:00:00 TS 6.30000 137.000 main 799 797 __O___________ -1 6.30000 137.000 0 19 1006 9 292
1986094N06138 1986 38 WP MM NOT_NAMED 1986-04-03 21:00:00 TS 6.46495 136.608 main 814 811 __P___________ -1 6.46495 136.608 0 19 1006 9 291
1986094N06138 1986 38 WP MM NOT_NAMED 1986-04-04 00:00:00 TS 6.60000 136.200 main 820 818 __O___________ -1 6.60000 136.200 0 19 1006 8 283
1986094N06138 1986 38 WP MM NOT_NAMED 1986-04-04 03:00:00 TS 6.64988 135.787 main 818 818 __P___________ -1 6.64988 135.787 0 21 1005 9 276
1986094N06138 1986 38 WP MM NOT_NAMED 1986-04-04 06:00:00 TS 6.70000 135.300 main 829 821 __O___________ -1 6.70000 135.300 1 23 1004 11 278
1986094N06138 1986 38 WP MM NOT_NAMED 1986-04-04 09:00:00 TS 6.80511 134.657 main 821 774 __P___________ -1 6.80511 134.657 1 23 1004 13 283
1986094N06138 1986 38 WP MM NOT_NAMED 1986-04-04 12:00:00 TS 7.00000 134.000 main 774 756 __O___________ -1 7.00000 134.000 1 23 1004 13 293
1986094N06138 1986 38 WP MM NOT_NAMED 1986-04-04 15:00:00 TS 7.29735 133.485 main 756 705 __P___________ -1 7.29735 133.485 1 23 1003 12 305
1986094N06138 1986 38 WP MM NOT_NAMED 1986-04-04 18:00:00 TS 7.70000 133.000 main 705 651 __O___________ -1 7.70000 133.000 1 23 1002 14 311
1986094N06138 1986 38 WP MM NOT_NAMED 1986-04-04 21:00:00 TS 8.18493 132.465 main 652 594 __P___________ -1 8.18493 132.465 1 23 1002 15 313
1986094N06138 1986 38 WP MM NOT_NAMED 1986-04-05 00:00:00 TS 8.70000 131.900 main 594 540 __O___________ -1 8.70000 131.900 1 23 1002 15 311
1986094N06138 1986 38 WP MM NOT_NAMED 1986-04-05 03:00:00 TS 9.15740 131.315 main 543 491 __P___________ -1 9.15740 131.315 1 23 1002 15 307
1986094N06138 1986 38 WP MM NOT_NAMED 1986-04-05 06:00:00 TS 9.60000 130.700 main 491 437 __O___________ -1 9.60000 130.700 1 23 1002 15 307
1986094N06138 1986 38 WP MM NOT_NAMED 1986-04-05 09:00:00 TS 10.0648 130.072 main 439 379 __P___________ -1 10.0648 130.072 1 23 1002 16 305
1986094N06138 1986 38 WP MM NOT_NAMED 1986-04-05 12:00:00 TS 10.5000 129.400 main 379 317 __O___________ -1 10.5000 129.400 1 23 1002 16 301
1986094N06138 1986 38 WP MM NOT_NAMED 1986-04-05 15:00:00 TS 10.8799 128.672 main 317 230 __P___________ -1 10.8799 128.672 1 23 1002 16 295
1986094N06138 1986 38 WP MM NOT_NAMED 1986-04-05 18:00:00 TS 11.2000 127.900 main 230 152 __O___________ -1 11.2000 127.900 1 23 1002 17 290
1986094N06138 1986 38 WP MM NOT_NAMED 1986-04-05 21:00:00 TS 11.4651 127.070 main 152 83 __P___________ -1 11.4651 127.070 1 26 1002 16 288
1986094N06138 1986 38 WP MM NOT_NAMED 1986-04-06 00:00:00 TS 11.7000 126.300 main 83 31 __O___________ -1 11.7000 126.300 1 29 1002 15 290
1986094N06138 1986 38 WP MM NOT_NAMED 1986-04-06 03:00:00 TS 11.9648 125.682 main 31 0 __P___________ -1 11.9648 125.682 1 26 1002 12 295
1986094N06138 1986 38 WP MM NOT_NAMED 1986-04-06 06:00:00 TS 12.2000 125.200 main 0 0 __O___________ -1 12.2000 125.200 1 23 1002 9 296
1986094N06138 1986 38 WP MM NOT_NAMED 1986-04-06 09:00:00 TS 12.3722 124.842 main 0 0 __P___________ -1 12.3722 124.842 1 21 1003 7 294
1986094N06138 1986 38 WP MM NOT_NAMED 1986-04-06 12:00:00 TS 12.5000 124.500 main 0 0 __O___________ -1 12.5000 124.500 0 19 1004 8 287
1986094N06138 1986 38 WP MM NOT_NAMED 1986-04-06 15:00:00 TS 12.6054 124.040 main 0 0 __P___________ -1 12.6054 124.040 0 19 1004 10 282
1986094N06138 1986 38 WP MM NOT_NAMED 1986-04-06 18:00:00 TS 12.7000 123.500 main 24 __O___________ -1 12.7000 123.500 0 19 1004 11 280

Digital Typhoon Data and Search

About IBTrACS Database

This database is a web-friendly format of International Best Track Archive for Climate Stewardship (IBTrACS), a global best track data archive curated by NOAA dating back to 1842.

Updated: 2021-10-08